Time;durP1;ratioP1;P1;durP2;ratioP2;P2;SDS_P1;SDS_P2;PMS_P1;PMS_P2;Temp;Humidity;BMP_temperature;BMP_pressure;BME280_temperature;BME280_humidity;BME280_pressure;Samples;Min_cycle;Max_cycle;Signal;HPM_P1;HPM_P2
2022/05/26 03:18:01;;;;;;;0.35;0.10;;;13.30;99.90;;;;;;4853759;29;20487;-88
2022/05/26 03:23:50;;;;;;;0.25;0.22;;;13.30;99.90;;;;;;4833625;29;20210;-88
2022/05/26 03:26:37;;;;;;;1.90;0.20;;;13.20;99.90;;;;;;4819430;29;20042;-89
2022/05/26 03:29:26;;;;;;;2.50;0.20;;;13.20;99.90;;;;;;4817406;29;20042;-89
2022/05/26 03:32:41;;;;;;;0.13;0.10;;;13.20;99.90;;;;;;4817456;29;20062;-89
2022/05/26 03:41:56;;;;;;;0.28;0.10;;;13.20;99.90;;;;;;4832992;29;20428;-89
2022/05/26 03:44:35;;;;;;;1.77;0.13;;;13.00;99.90;;;;;;4822538;29;20049;-89
2022/05/26 03:47:17;;;;;;;0.57;0.10;;;13.10;99.90;;;;;;4829641;29;20468;-88
2022/05/26 03:50:15;;;;;;;0.45;0.17;;;13.00;99.90;;;;;;4830534;29;20042;-89
2022/05/26 03:53:33;;;;;;;0.40;0.10;;;13.00;99.90;;;;;;4816894;29;20121;-89
2022/05/26 03:57:00;;;;;;;0.55;0.10;;;13.00;99.90;;;;;;4807819;29;20129;-90
2022/05/26 04:00:19;;;;;;;;;;;;;;;;;;;;;
2022/05/26 04:03:22;;;;;;;;;;;;;;;;;;;;;
2022/05/26 04:06:31;;;;;;;0.00;0.00;;;12.90;99.90;;;;;;4817301;29;20030;-89
2022/05/26 04:09:22;;;;;;;;;;;;;;;;;;;;;
2022/05/26 04:12:43;;;;;;;0.47;0.10;;;13.00;99.90;;;;;;4818053;29;20041;-89
2022/05/26 04:19:39;;;;;;;0.40;0.10;;;13.10;99.90;;;;;;4812040;29;20047;-88
2022/05/26 05:33:54;;;;;;;1.05;0.10;;;14.90;99.90;;;;;;4820394;29;20120;-89
2022/05/26 05:37:07;;;;;;;0.20;0.10;;;15.00;99.90;;;;;;4821156;29;20038;-89
2022/05/26 05:43:53;;;;;;;;;;;;;;;;;;;;;
2022/05/26 05:49:42;;;;;;;0.10;0.00;;;15.20;99.90;;;;;;4820254;29;20042;-88
2022/05/26 05:52:12;;;;;;;0.10;0.10;;;15.30;99.90;;;;;;4819898;29;20034;-88
2022/05/26 05:55:49;;;;;;;0.93;0.10;;;15.30;99.90;;;;;;4820042;29;20102;-89
2022/05/26 06:01:39;;;;;;;0.37;0.10;;;15.60;99.90;;;;;;4832978;29;20027;-89
2022/05/26 06:08:32;;;;;;;0.20;0.00;;;15.80;99.90;;;;;;4815253;29;20025;-90
2022/05/26 06:11:59;;;;;;;;;;;;;;;;;;;;;
2022/05/26 06:18:18;;;;;;;;;;;;;;;;;;;;;
2022/05/26 06:21:35;;;;;;;0.55;0.00;;;16.30;99.90;;;;;;4819386;29;20049;-90
2022/05/26 06:25:03;;;;;;;0.55;0.10;;;16.50;99.90;;;;;;4823648;29;20060;-89
2022/05/26 06:31:22;;;;;;;;;;;;;;;;;;;;;
2022/05/26 06:39:36;;;;;;;1.10;0.30;;;16.20;99.90;;;;;;4820211;29;20396;-90
2022/05/26 06:42:19;;;;;;;0.77;0.10;;;16.30;99.90;;;;;;4820744;29;20022;-89
2022/05/26 06:47:58;;;;;;;0.67;0.40;;;16.30;99.90;;;;;;4816746;29;20042;-88
2022/05/26 06:53:57;;;;;;;0.15;0.00;;;16.60;99.90;;;;;;4813861;29;21076;-88
2022/05/26 06:56:25;;;;;;;1.95;0.20;;;16.50;99.90;;;;;;4815654;29;20034;-88
2022/05/26 06:58:51;;;;;;;0.63;0.10;;;16.50;99.90;;;;;;4835139;29;20041;-90
2022/05/26 07:01:17;;;;;;;0.30;0.03;;;16.50;99.90;;;;;;4824616;29;20038;-88
2022/05/26 07:03:43;;;;;;;0.50;0.10;;;16.80;99.90;;;;;;4817273;29;20050;-89
2022/05/26 07:06:31;;;;;;;1.52;0.13;;;16.60;99.90;;;;;;4811597;29;20065;-89
2022/05/26 07:08:58;;;;;;;0.57;0.20;;;16.60;99.90;;;;;;4817786;29;20110;-90
2022/05/26 07:11:24;;;;;;;1.38;0.20;;;16.90;99.90;;;;;;4820128;29;20037;-90
2022/05/26 07:13:50;;;;;;;0.10;0.10;;;17.00;99.90;;;;;;4829497;29;20042;-89
2022/05/26 07:16:16;;;;;;;0.50;0.10;;;17.10;99.90;;;;;;4827107;29;20090;-90
2022/05/26 07:18:44;;;;;;;1.55;0.10;;;17.10;99.90;;;;;;4814595;29;21227;-88
2022/05/26 07:21:11;;;;;;;0.38;0.10;;;17.20;99.70;;;;;;4837593;29;20062;-90
2022/05/26 07:23:36;;;;;;;0.22;0.05;;;17.30;99.80;;;;;;4838313;29;20034;-88
2022/05/26 07:26:07;;;;;;;1.08;0.20;;;17.20;99.40;;;;;;4821693;29;20523;-89
2022/05/26 07:28:34;;;;;;;0.25;0.08;;;17.50;99.00;;;;;;4833245;29;20034;-90
2022/05/26 07:31:01;;;;;;;0.35;0.10;;;17.40;98.60;;;;;;4819020;29;20051;-89
2022/05/26 07:33:26;;;;;;;1.10;0.20;;;17.50;99.10;;;;;;4821417;29;20042;-89
2022/05/26 07:35:52;;;;;;;0.40;0.10;;;17.50;99.20;;;;;;4822651;29;20073;-89
2022/05/26 07:41:17;;;;;;;0.30;0.10;;;17.70;99.20;;;;;;4822999;29;20396;-89
2022/05/26 07:43:52;;;;;;;0.32;0.00;;;17.70;99.00;;;;;;4836405;29;20050;-88
2022/05/26 07:46:20;;;;;;;0.50;0.10;;;18.00;98.50;;;;;;4810774;29;20564;-90
2022/05/26 07:48:47;;;;;;;0.68;0.10;;;18.00;98.20;;;;;;4804501;29;20046;-89
2022/05/26 07:51:13;;;;;;;0.10;0.00;;;18.20;97.80;;;;;;4804472;29;20135;-89
2022/05/26 07:53:38;;;;;;;1.23;0.38;;;18.30;98.00;;;;;;4818148;29;20118;-89
2022/05/26 07:56:04;;;;;;;1.95;0.10;;;18.30;96.60;;;;;;4818813;29;20039;-89
2022/05/26 07:58:35;;;;;;;0.85;0.10;;;18.20;96.50;;;;;;4803568;29;20038;-90
2022/05/26 08:01:04;;;;;;;0.25;0.10;;;18.30;97.30;;;;;;4805821;29;20113;-90
2022/05/26 08:03:30;;;;;;;0.10;0.05;;;18.40;97.20;;;;;;4835785;29;20138;-90
2022/05/26 08:05:59;;;;;;;0.10;0.10;;;18.50;97.30;;;;;;4836928;29;20022;-89
2022/05/26 08:08:26;;;;;;;1.30;0.35;;;18.60;97.10;;;;;;4833663;29;20031;-88
2022/05/26 08:10:57;;;;;;;0.38;0.20;;;18.60;97.10;;;;;;4833716;29;20027;-89
2022/05/26 08:13:22;;;;;;;0.38;0.10;;;18.50;96.60;;;;;;4835843;29;20069;-87
2022/05/26 08:16:08;;;;;;;0.55;0.10;;;18.60;97.00;;;;;;4844804;29;20458;-88
2022/05/26 08:18:39;;;;;;;1.65;0.10;;;18.60;97.10;;;;;;4830572;29;20030;-89
2022/05/26 08:21:18;;;;;;;0.15;0.10;;;18.80;96.90;;;;;;4838413;29;20038;-90
2022/05/26 08:23:44;;;;;;;0.03;0.00;;;18.80;96.70;;;;;;4818553;29;20026;-90
2022/05/26 08:26:13;;;;;;;0.65;0.00;;;18.80;96.60;;;;;;4824709;29;20023;-88
2022/05/26 08:28:46;;;;;;;0.10;0.10;;;18.80;96.40;;;;;;4840302;29;20125;-89
2022/05/26 08:31:15;;;;;;;0.57;0.10;;;18.80;96.60;;;;;;4824305;29;20149;-90
2022/05/26 08:33:45;;;;;;;0.73;0.10;;;19.00;96.80;;;;;;4821449;29;20055;-89
2022/05/26 08:36:24;;;;;;;0.85;0.10;;;18.90;96.10;;;;;;4813923;29;20046;-89
2022/05/26 08:38:52;;;;;;;2.05;0.20;;;19.10;96.50;;;;;;4836873;29;20091;-89
2022/05/26 08:41:24;;;;;;;0.10;0.00;;;19.10;96.50;;;;;;4854814;29;20087;-87
2022/05/26 08:44:16;;;;;;;1.33;0.43;;;19.00;96.20;;;;;;4861141;29;20040;-88
2022/05/26 08:47:13;;;;;;;0.50;0.10;;;18.90;96.60;;;;;;4846197;29;20030;-88
2022/05/26 08:49:46;;;;;;;0.25;0.10;;;19.00;96.50;;;;;;4845523;29;20039;-88
2022/05/26 08:52:12;;;;;;;0.15;0.08;;;19.00;96.50;;;;;;4840496;29;20023;-89
2022/05/26 08:54:50;;;;;;;2.50;0.13;;;19.00;96.40;;;;;;4850296;29;20025;-88
2022/05/26 08:57:23;;;;;;;0.43;0.10;;;18.70;96.50;;;;;;4862142;29;20030;-88
2022/05/26 08:59:49;;;;;;;0.32;0.13;;;18.60;96.60;;;;;;4842813;29;20051;-88
2022/05/26 09:02:28;;;;;;;0.30;0.08;;;18.50;96.90;;;;;;4827119;29;20038;-90
2022/05/26 09:05:00;;;;;;;0.20;0.08;;;18.40;97.40;;;;;;4846541;29;20030;-87
2022/05/26 09:13:24;;;;;;;0.65;0.17;;;18.70;96.60;;;;;;4823451;29;20408;-89
2022/05/26 09:15:50;;;;;;;1.88;0.17;;;18.70;96.80;;;;;;4836329;29;20014;-88
2022/05/26 09:18:18;;;;;;;0.22;0.08;;;18.70;96.80;;;;;;4830077;29;20076;-89
2022/05/26 09:20:52;;;;;;;1.08;0.17;;;18.70;96.80;;;;;;4810514;29;20041;-90
2022/05/26 09:23:32;;;;;;;0.45;0.10;;;18.60;96.50;;;;;;4823077;29;20037;-88
2022/05/26 09:26:09;;;;;;;0.52;0.17;;;18.80;96.30;;;;;;4823745;29;20121;-89
2022/05/26 09:28:37;;;;;;;0.30;0.03;;;19.00;96.20;;;;;;4806901;29;20060;-90
2022/05/26 09:31:22;;;;;;;0.35;0.15;;;19.20;95.90;;;;;;4818827;29;20046;-89
2022/05/26 09:34:01;;;;;;;1.35;0.20;;;19.50;96.10;;;;;;4820590;29;20031;-89
2022/05/26 09:36:36;;;;;;;2.55;0.20;;;19.60;95.40;;;;;;4819854;29;20031;-90
2022/05/26 09:39:03;;;;;;;0.10;0.10;;;19.80;95.90;;;;;;4820323;29;20038;-90
2022/05/26 09:41:36;;;;;;;0.47;0.20;;;19.70;96.10;;;;;;4821684;29;20118;-89
2022/05/26 09:44:02;;;;;;;0.80;0.20;;;19.80;95.70;;;;;;4824741;29;20031;-89
2022/05/26 09:46:28;;;;;;;0.30;0.10;;;19.60;95.60;;;;;;4824321;29;20037;-89
2022/05/26 09:49:08;;;;;;;0.13;0.10;;;19.50;95.80;;;;;;4838476;29;20030;-90
2022/05/26 09:51:45;;;;;;;1.33;0.10;;;19.40;95.70;;;;;;4836671;29;20479;-90
2022/05/26 09:54:41;;;;;;;0.57;0.10;;;19.20;95.40;;;;;;4824536;29;20528;-89
2022/05/26 09:57:37;;;;;;;0.10;0.10;;;19.00;95.90;;;;;;4825728;29;20081;-89
2022/05/26 10:00:17;;;;;;;0.10;0.00;;;18.90;96.50;;;;;;4819667;29;20404;-89
2022/05/26 10:02:46;;;;;;;0.88;0.10;;;18.70;96.30;;;;;;4820680;29;20110;-90
2022/05/26 10:05:54;;;;;;;1.00;0.10;;;18.50;96.40;;;;;;4805466;29;20027;-89
2022/05/26 10:08:32;;;;;;;0.00;0.00;;;18.40;96.30;;;;;;4824070;29;20050;-89
2022/05/26 10:11:04;;;;;;;0.20;0.10;;;18.40;96.40;;;;;;4825496;29;20046;-89
2022/05/26 10:13:49;;;;;;;0.20;0.13;;;18.50;96.60;;;;;;4823624;29;20099;-90
2022/05/26 10:16:36;;;;;;;0.10;0.10;;;18.50;96.40;;;;;;4823759;29;20079;-90
2022/05/26 10:19:24;;;;;;;1.23;0.10;;;18.60;96.80;;;;;;4824739;29;20058;-89
2022/05/26 10:22:24;;;;;;;0.35;0.10;;;18.60;96.50;;;;;;4830964;29;20058;-89
2022/05/26 10:24:58;;;;;;;0.57;0.10;;;18.70;96.90;;;;;;4823387;29;20034;-89
2022/05/26 10:28:04;;;;;;;0.85;0.15;;;18.70;96.50;;;;;;4836668;29;20058;-89
2022/05/26 10:30:38;;;;;;;0.10;0.00;;;18.90;96.70;;;;;;4820584;29;20066;-88
2022/05/26 10:33:36;;;;;;;0.15;0.10;;;18.60;96.70;;;;;;4827139;29;20037;-89
2022/05/26 10:36:24;;;;;;;0.75;0.10;;;18.70;96.80;;;;;;4834524;29;20062;-89
2022/05/26 10:39:17;;;;;;;1.00;0.10;;;18.80;96.80;;;;;;4820713;29;20038;-89
2022/05/26 10:45:41;;;;;;;0.15;0.10;;;18.90;96.40;;;;;;4825476;29;20066;-90
2022/05/26 10:48:26;;;;;;;0.28;0.10;;;18.90;96.00;;;;;;4838722;29;20440;-89
2022/05/26 10:51:23;;;;;;;1.10;0.15;;;18.80;96.60;;;;;;4829087;29;20049;-90
2022/05/26 10:54:18;;;;;;;0.52;0.10;;;19.00;96.50;;;;;;4831644;29;20535;-90
2022/05/26 10:56:59;;;;;;;0.38;0.10;;;18.90;97.10;;;;;;4822037;29;20050;-90
2022/05/26 10:59:59;;;;;;;0.55;0.10;;;18.80;96.50;;;;;;4804889;29;20520;-90
2022/05/26 11:02:38;;;;;;;1.23;0.22;;;19.00;96.70;;;;;;4835494;29;20030;-90
2022/05/26 11:05:22;;;;;;;0.10;0.05;;;18.70;96.40;;;;;;4805278;29;20101;-90
2022/05/26 11:07:58;;;;;;;1.15;0.17;;;18.60;96.70;;;;;;4817492;29;20019;-89
2022/05/26 11:10:58;;;;;;;0.40;0.10;;;18.50;96.40;;;;;;4808907;29;20149;-90
2022/05/26 11:13:56;;;;;;;0.00;0.00;;;18.50;96.90;;;;;;4822577;29;20039;-90
2022/05/26 11:19:59;;;;;;;3.83;0.20;;;18.30;97.00;;;;;;4809619;29;20114;-90
2022/05/26 11:22:25;;;;;;;0.65;0.20;;;18.40;96.80;;;;;;4837393;29;20062;-90
2022/05/26 11:24:53;;;;;;;0.60;0.20;;;18.60;96.80;;;;;;4823638;29;20035;-88
2022/05/26 11:27:59;;;;;;;1.17;0.13;;;18.90;97.00;;;;;;4811346;29;20571;-90
2022/05/26 11:36:56;;;;;;;0.25;0.10;;;18.90;96.90;;;;;;4815307;29;20073;-90
2022/05/26 11:39:34;;;;;;;0.40;0.20;;;18.90;97.20;;;;;;4837569;29;20046;-89
2022/05/26 11:42:04;;;;;;;0.22;0.10;;;18.80;96.60;;;;;;4827346;29;20050;-90
2022/05/26 11:44:40;;;;;;;0.82;0.20;;;18.90;96.80;;;;;;4822260;29;20062;-90
2022/05/26 11:51:28;;;;;;;0.88;0.20;;;19.10;96.90;;;;;;4810817;29;20038;-92
2022/05/26 11:53:56;;;;;;;0.95;0.38;;;19.30;96.10;;;;;;4819566;29;20504;-89
2022/05/26 11:56:29;;;;;;;7.15;0.20;;;19.40;96.00;;;;;;4824883;29;20045;-90
2022/05/26 11:59:31;;;;;;;0.17;0.10;;;19.30;96.20;;;;;;4841146;29;20030;-90
2022/05/26 12:02:00;;;;;;;0.10;0.10;;;19.60;96.40;;;;;;4840214;29;20034;-90
2022/05/26 12:04:53;;;;;;;2.95;0.30;;;19.60;96.50;;;;;;4814589;29;20031;-90
2022/05/26 12:07:21;;;;;;;1.10;0.20;;;19.60;96.40;;;;;;4809356;29;20053;-91
2022/05/26 12:10:38;;;;;;;0.65;0.10;;;19.80;96.40;;;;;;4823067;29;20153;-90
2022/05/26 12:13:25;;;;;;;0.25;0.13;;;19.80;95.70;;;;;;4846121;29;20122;-91
2022/05/26 12:16:34;;;;;;;0.47;0.10;;;20.10;96.30;;;;;;4860944;29;20049;-90
2022/05/26 12:19:34;;;;;;;1.50;0.20;;;20.00;95.30;;;;;;4854119;29;20044;-90
2022/05/26 12:22:41;;;;;;;1.40;0.20;;;19.90;95.30;;;;;;4836651;29;20045;-90
2022/05/26 12:29:29;;;;;;;0.55;0.10;;;19.60;95.70;;;;;;4825022;29;20034;-90
2022/05/26 12:32:47;;;;;;;0.00;0.00;;;19.50;96.40;;;;;;4823018;29;20125;-89
2022/05/26 12:35:40;;;;;;;0.82;0.20;;;19.30;95.80;;;;;;4798519;29;20596;-89
2022/05/26 12:38:15;;;;;;;0.15;0.10;;;19.10;96.10;;;;;;4807611;29;20087;-90
2022/05/26 12:41:21;;;;;;;0.57;0.10;;;19.20;96.50;;;;;;4810015;29;20119;-89
2022/05/26 12:44:11;;;;;;;0.60;0.10;;;19.10;96.40;;;;;;4831395;29;20061;-89
2022/05/26 12:47:08;;;;;;;0.70;0.20;;;19.20;96.70;;;;;;4839604;29;20039;-89
2022/05/26 12:50:07;;;;;;;1.67;0.20;;;19.10;96.70;;;;;;4808422;29;20463;-89
2022/05/26 12:52:42;;;;;;;2.25;0.20;;;19.30;96.80;;;;;;4820920;29;20034;-88
2022/05/26 12:55:27;;;;;;;1.15;0.20;;;19.40;96.70;;;;;;4834599;29;20121;-90
2022/05/26 12:58:16;;;;;;;0.10;0.10;;;19.80;95.90;;;;;;4826001;29;20518;-89
2022/05/26 13:01:10;;;;;;;1.00;0.20;;;20.10;95.70;;;;;;4839222;29;20031;-89
2022/05/26 13:03:55;;;;;;;1.90;0.20;;;20.80;94.60;;;;;;4824374;29;20041;-90
2022/05/26 13:06:57;;;;;;;1.50;0.20;;;21.30;94.30;;;;;;4824358;29;20030;-91
2022/05/26 13:09:27;;;;;;;;;;;21.60;94.60;;;;;;4827148;29;20105;-91
2022/05/26 13:11:55;;;;;;;0.30;0.10;;;21.70;94.50;;;;;;4821409;29;19917;-90
2022/05/26 13:14:47;;;;;;;0.95;0.20;;;21.70;93.60;;;;;;4824481;29;20114;-90
2022/05/26 13:17:25;;;;;;;0.57;0.10;;;21.60;93.90;;;;;;4812473;29;20026;-90
2022/05/26 13:20:03;;;;;;;0.70;0.20;;;21.70;93.70;;;;;;4820837;29;20027;-89
2022/05/26 13:22:55;;;;;;;1.02;0.17;;;21.40;93.20;;;;;;4820977;29;20496;-90
2022/05/26 13:28:36;;;;;;;;;;;20.80;93.50;;;;;;4829515;29;20038;-90
2022/05/26 13:38:14;;;;;;;;;;;;;;;;;;;;;
2022/05/26 13:40:42;;;;;;;0.38;0.17;;;20.40;95.60;;;;;;4830473;29;20197;-91
2022/05/26 13:44:15;;;;;;;0.93;0.20;;;20.50;95.40;;;;;;4842496;29;20022;-91
2022/05/26 13:47:16;;;;;;;0.55;0.10;;;20.30;95.40;;;;;;4826136;29;20042;-91
2022/05/26 13:50:24;;;;;;;0.40;0.10;;;20.50;94.70;;;;;;4839445;29;20030;-91
2022/05/26 13:52:50;;;;;;;0.50;0.10;;;20.50;95.20;;;;;;4822501;29;20267;-91
2022/05/26 13:55:36;;;;;;;0.43;0.15;;;20.50;95.10;;;;;;4825099;29;20061;-90
2022/05/26 13:58:20;;;;;;;;;;;;;;;;;;;;;
2022/05/26 14:00:56;;;;;;;0.30;0.20;;;20.30;95.70;;;;;;4824683;29;20030;-90
2022/05/26 14:03:25;;;;;;;1.65;0.50;;;20.40;95.90;;;;;;4823562;29;20540;-90
2022/05/26 14:06:32;;;;;;;0.50;0.20;;;20.30;95.80;;;;;;4820119;29;20035;-91
2022/05/26 14:09:27;;;;;;;0.60;0.10;;;20.30;96.20;;;;;;4820106;29;20523;-91
2022/05/26 14:12:21;;;;;;;0.50;0.13;;;20.40;96.40;;;;;;4825802;29;20408;-89
2022/05/26 14:15:22;;;;;;;1.05;0.10;;;20.30;96.00;;;;;;4839685;29;20033;-89
2022/05/26 14:18:10;;;;;;;0.68;0.20;;;20.40;96.00;;;;;;4821808;29;20031;-89
2022/05/26 15:08:41;;;;;;;2.10;0.20;;;23.30;91.70;;;;;;4820646;29;20050;-89
2022/05/26 15:19:29;;;;;;;;;;;;;;;;;;;;;
2022/05/26 15:43:43;;;;;;;0.43;0.10;;;23.40;90.30;;;;;;4750688;30;20043;-92
2022/05/26 15:50:11;;;;;;;;;;;;;;;;;;;;;
2022/05/26 15:53:39;;;;;;;;;;;;;;;;;;;;;
2022/05/26 15:56:35;;;;;;;0.52;0.10;;;21.60;91.70;;;;;;4720017;30;20606;-92
2022/05/26 16:02:55;;;;;;;0.77;0.30;;;21.90;91.90;;;;;;4739654;30;20119;-90
2022/05/26 16:06:18;;;;;;;;;;;;;;;;;;;;;
2022/05/26 16:09:28;;;;;;;0.50;0.20;;;21.40;91.60;;;;;;4748619;30;20108;-90
2022/05/26 16:16:05;;;;;;;;;;;;;;;;;;;;;
2022/05/26 16:18:57;;;;;;;;;;;;;;;;;;;;;
2022/05/26 16:25:02;;;;;;;1.08;0.20;;;21.30;91.60;;;;;;4847607;29;20411;-90
2022/05/26 16:28:07;;;;;;;0.45;0.10;;;21.20;92.20;;;;;;4824820;29;20030;-91
2022/05/26 16:34:09;;;;;;;1.65;0.35;;;20.90;92.90;;;;;;4814412;29;20457;-91
2022/05/26 16:37:03;;;;;;;;;;;20.90;93.10;;;;;;4821071;29;20027;-90
2022/05/26 16:39:34;;;;;;;0.30;0.20;;;20.80;93.70;;;;;;4818878;29;19920;-91
2022/05/26 16:42:24;;;;;;;;;;;;;;;;;;;;;
2022/05/26 16:45:21;;;;;;;0.47;0.27;;;20.80;93.70;;;;;;4807796;29;20047;-90
2022/05/26 16:48:11;;;;;;;0.38;0.13;;;20.90;93.50;;;;;;4821100;29;20480;-91
2022/05/26 16:51:12;;;;;;;0.28;0.20;;;20.70;93.80;;;;;;4821210;29;20041;-91
2022/05/26 16:58:00;;;;;;;0.90;0.30;;;20.60;93.50;;;;;;4823434;29;20041;-90
2022/05/26 17:00:59;;;;;;;0.82;0.20;;;20.60;93.70;;;;;;4851014;29;20052;-90
2022/05/26 17:06:59;;;;;;;0.63;0.20;;;20.30;94.00;;;;;;4860338;24;20064;-90
2022/05/26 17:20:55;;;;;;;0.50;0.20;;;20.30;93.80;;;;;;4820832;29;20031;-90
2022/05/26 17:22:41;;;;;;;0.55;0.28;;;20.40;93.90;;;;;;4817761;29;20646;-90
2022/05/26 17:29:10;;;;;;;0.20;0.08;;;20.40;94.10;;;;;;4831875;29;20108;-89
2022/05/26 17:32:17;;;;;;;0.52;0.10;;;20.00;94.10;;;;;;4823125;29;20125;-90
2022/05/26 17:35:32;;;;;;;;;;;;;;;;;;;;;
2022/05/26 17:38:01;;;;;;;0.55;0.22;;;20.20;94.70;;;;;;4824604;29;20030;-90
2022/05/26 17:41:05;;;;;;;1.05;0.30;;;19.90;94.30;;;;;;4823133;29;20030;-89
2022/05/26 17:44:00;;;;;;;1.90;0.40;;;19.90;94.50;;;;;;4815322;29;20041;-90
2022/05/26 17:46:38;;;;;;;0.52;0.20;;;20.00;94.40;;;;;;4804930;29;20138;-90
2022/05/26 17:49:25;;;;;;;0.50;0.10;;;19.90;94.90;;;;;;4805570;29;20039;-89
2022/05/26 17:52:17;;;;;;;0.70;0.13;;;20.00;93.90;;;;;;4803939;29;20122;-89
2022/05/26 17:55:03;;;;;;;0.52;0.10;;;20.00;93.60;;;;;;4804025;29;20066;-89
2022/05/26 17:58:04;;;;;;;0.40;0.10;;;19.90;93.90;;;;;;4818129;29;20078;-90
2022/05/26 18:00:57;;;;;;;0.40;0.10;;;19.90;94.00;;;;;;4822918;29;20094;-90
2022/05/26 18:03:44;;;;;;;0.85;0.25;;;19.80;93.60;;;;;;4822503;29;20027;-90
2022/05/26 18:06:21;;;;;;;1.42;0.38;;;19.80;94.10;;;;;;4804412;29;20035;-90
2022/05/26 18:08:52;;;;;;;0.22;0.10;;;19.70;94.20;;;;;;4821546;29;20038;-90
2022/05/26 18:11:27;;;;;;;0.32;0.20;;;19.60;93.90;;;;;;4823750;29;20030;-90
2022/05/26 18:14:04;;;;;;;0.70;0.20;;;19.60;94.10;;;;;;4822245;29;20113;-88
2022/05/26 18:17:03;;;;;;;;;;;;;;;;;;;;;
2022/05/26 18:23:00;;;;;;;1.05;0.30;;;19.50;94.50;;;;;;4818528;29;20111;-90
2022/05/26 18:25:29;;;;;;;0.43;0.00;;;19.30;94.50;;;;;;4804012;29;20045;-90
2022/05/26 18:34:57;;;;;;;1.30;0.22;;;19.00;94.80;;;;;;4820419;29;20186;-89
2022/05/26 18:37:35;;;;;;;0.38;0.10;;;18.90;94.90;;;;;;4821151;29;20055;-90
2022/05/26 18:43:27;;;;;;;0.40;0.10;;;18.90;95.30;;;;;;4839329;29;20427;-90
2022/05/26 18:46:49;;;;;;;1.00;0.20;;;18.60;95.60;;;;;;4823155;29;20049;-88
2022/05/26 18:56:29;;;;;;;1.42;0.20;;;18.40;96.20;;;;;;4819144;29;20037;-90
2022/05/26 19:02:00;;;;;;;1.00;0.30;;;18.20;96.40;;;;;;4804561;29;20023;-90
2022/05/26 19:04:49;;;;;;;2.03;0.17;;;18.10;96.50;;;;;;4818137;29;20143;-90
2022/05/26 19:07:41;;;;;;;0.55;0.20;;;18.10;96.60;;;;;;4821440;29;20057;-90
2022/05/26 19:10:42;;;;;;;1.15;0.40;;;18.00;96.70;;;;;;4820280;29;20030;-90
2022/05/26 19:13:40;;;;;;;0.22;0.20;;;18.00;96.70;;;;;;4819640;29;20061;-90
2022/05/26 19:16:48;;;;;;;;;;;;;;;;;;;;;
2022/05/26 19:19:40;;;;;;;1.67;0.40;;;17.90;96.80;;;;;;4805687;29;20035;-90
2022/05/26 19:22:21;;;;;;;;;;;17.90;97.10;;;;;;4812994;29;20512;-90
2022/05/26 19:25:06;;;;;;;0.77;0.10;;;17.80;97.10;;;;;;4818701;29;19993;-90
2022/05/26 19:31:14;;;;;;;2.25;0.30;;;17.70;97.50;;;;;;4811229;29;20047;-90
2022/05/26 19:33:56;;;;;;;0.68;0.30;;;17.90;97.40;;;;;;4805154;29;20136;-90
2022/05/26 19:36:37;;;;;;;1.05;0.20;;;17.70;97.60;;;;;;4802155;29;20043;-90
2022/05/26 19:39:35;;;;;;;0.90;0.30;;;17.60;97.80;;;;;;4802159;29;20138;-90
2022/05/26 19:51:32;;;;;;;0.70;0.20;;;17.40;98.10;;;;;;4852519;24;20062;-89
2022/05/26 19:59:15;;;;;;;3.38;0.35;;;17.20;98.40;;;;;;4946835;23;20062;-89
2022/05/26 20:02:06;;;;;;;0.35;0.10;;;17.10;98.10;;;;;;4823707;29;20034;-89
2022/05/26 20:05:03;;;;;;;0.50;0.30;;;16.90;98.30;;;;;;4817999;29;20031;-89
2022/05/26 20:07:43;;;;;;;0.35;0.15;;;17.10;98.60;;;;;;4800387;29;20039;-87
2022/05/26 20:10:42;;;;;;;0.83;0.20;;;17.00;98.70;;;;;;4803055;29;20142;-89
2022/05/26 20:13:39;;;;;;;1.23;0.25;;;16.90;98.50;;;;;;4806778;29;20039;-90
2022/05/26 20:16:33;;;;;;;1.02;0.20;;;16.90;98.60;;;;;;4805427;29;20073;-90
2022/05/26 20:19:54;;;;;;;0.77;0.28;;;16.80;98.70;;;;;;4821865;29;20081;-90
2022/05/26 20:23:25;;;;;;;;;;;;;;;;;;;;;
2022/05/26 20:36:29;;;;;;;0.98;0.55;;;16.40;99.50;;;;;;4829139;29;20167;-90
2022/05/26 20:39:28;;;;;;;1.80;0.30;;;16.30;99.80;;;;;;4824880;29;20038;-90
2022/05/26 20:42:03;;;;;;;3.03;0.40;;;16.50;99.90;;;;;;4839943;29;20046;-89
2022/05/26 20:44:59;;;;;;;2.50;0.43;;;16.40;99.90;;;;;;4824795;29;20129;-90
2022/05/26 20:51:24;;;;;;;0.43;0.20;;;16.30;99.90;;;;;;4768757;30;20450;-90
2022/05/26 21:05:24;;;;;;;;;;;;;;;;;;;;;
2022/05/26 21:08:15;;;;;;;1.48;0.50;;;16.00;99.90;;;;;;4825331;29;19915;-90
2022/05/26 21:10:50;;;;;;;2.25;0.40;;;15.90;99.90;;;;;;4824691;29;20089;-90
2022/05/26 21:13:24;;;;;;;1.05;0.40;;;15.90;99.90;;;;;;4830856;29;20056;-90
2022/05/26 21:16:11;;;;;;;0.68;0.25;;;15.80;99.90;;;;;;4834692;29;20121;-90
2022/05/26 21:19:12;;;;;;;2.38;0.40;;;15.90;99.90;;;;;;4842732;29;20570;-89
2022/05/26 21:22:26;;;;;;;1.25;0.30;;;15.80;99.90;;;;;;4837501;29;20032;-91
2022/05/26 21:25:20;;;;;;;1.02;0.40;;;15.80;99.90;;;;;;4822920;29;20038;-91
2022/05/26 21:27:51;;;;;;;1.00;0.32;;;15.70;99.90;;;;;;4824310;29;20389;-89
2022/05/26 21:30:20;;;;;;;1.50;0.40;;;15.70;99.90;;;;;;4827892;29;20022;-89
2022/05/26 21:32:58;;;;;;;1.25;0.40;;;15.70;99.90;;;;;;4825801;29;20111;-90
2022/05/26 21:35:29;;;;;;;1.27;0.40;;;15.80;99.90;;;;;;4836231;29;20075;-90
2022/05/26 21:37:57;;;;;;;0.93;0.40;;;15.70;99.90;;;;;;4844583;29;20037;-87
2022/05/26 21:40:34;;;;;;;2.03;0.40;;;15.60;99.90;;;;;;4843999;29;20038;-89
2022/05/26 21:43:00;;;;;;;0.55;0.30;;;15.60;99.90;;;;;;4820958;29;20041;-89
2022/05/26 21:45:43;;;;;;;2.28;0.45;;;15.60;99.90;;;;;;4807027;29;20023;-89
2022/05/26 21:48:12;;;;;;;2.33;0.50;;;15.60;99.90;;;;;;4834193;29;20037;-89
2022/05/26 21:50:38;;;;;;;1.45;0.45;;;15.60;99.90;;;;;;4823587;29;20489;-89
2022/05/26 21:53:15;;;;;;;0.63;0.28;;;15.60;99.90;;;;;;4820244;29;20043;-89
2022/05/26 21:55:51;;;;;;;4.38;0.57;;;15.50;99.90;;;;;;4834875;29;20029;-89
